Airport ID:KFOT
Update Time (UTC):22 OCT 18 18:43
Wind Speed (Knots):7
Wind Direction (Magnetic):310
Temperature (°C):10
Dew Point (°C):9
Humidity (%):94
Altimeter (inHg):29.98
Density Altitude (Feet):
Visibility (Miles):10
Clouds (Hundreds of feet):OVC006
Present Weather:
METAR:METAR KFOT 221840Z AUTO 33006KT 10SM OVC006 10/09 A2998 RMK AO1

The data displayed is for advisory purposes only and is not to be used for flight planning or operations.

This page is not automatically refreshed. Reload the page to see current data.